createdAt,value
2018-04-23T00:01:38.568Z,49.90
2018-04-23T00:04:06.187Z,50.00
2018-04-23T00:06:35.282Z,50.00
2018-04-23T00:09:04.401Z,50.20
2018-04-23T00:11:32.755Z,50.00
2018-04-23T00:14:01.885Z,50.20
2018-04-23T00:16:30.245Z,50.00
2018-04-23T00:18:58.630Z,50.70
2018-04-23T00:21:27.006Z,50.30
2018-04-23T00:23:54.622Z,50.20
2018-04-23T00:26:22.235Z,50.50
2018-04-23T00:28:50.622Z,50.90
2018-04-23T00:31:18.210Z,50.90
2018-04-23T00:33:45.818Z,50.90
2018-04-23T00:36:14.920Z,50.80
2018-04-23T00:38:43.307Z,51.00
2018-04-23T00:41:11.662Z,51.00
2018-04-23T00:43:39.288Z,50.90
2018-04-23T00:46:06.878Z,50.90
2018-04-23T00:48:34.478Z,51.00
2018-04-23T00:51:02.858Z,50.90
2018-04-23T00:53:38.983Z,51.00
2018-04-23T00:56:06.602Z,51.00
2018-04-23T00:58:34.279Z,51.20
2018-04-23T01:01:01.926Z,50.90
2018-04-23T01:03:29.514Z,51.90
2018-04-23T01:05:57.134Z,51.00
2018-04-23T01:08:24.729Z,51.10
2018-04-23T01:10:52.341Z,51.20
2018-04-23T01:13:20.693Z,51.50
2018-04-23T01:15:48.321Z,51.40
2018-04-23T01:18:16.711Z,51.90
2018-04-23T01:20:44.322Z,51.90
2018-04-23T01:23:12.672Z,52.20
2018-04-23T01:25:40.290Z,52.10
2018-04-23T01:28:07.885Z,51.70
2018-04-23T01:30:35.502Z,51.60
2018-04-23T01:33:03.090Z,51.60
2018-04-23T01:35:30.712Z,51.80
2018-04-23T01:37:58.298Z,51.80
2018-04-23T01:40:25.926Z,51.90
2018-04-23T01:42:54.282Z,51.80
2018-04-23T01:45:21.878Z,51.80
2018-04-23T01:47:49.499Z,52.20
2018-04-23T01:50:17.087Z,52.00
2018-04-23T01:52:45.477Z,52.10
2018-04-23T01:55:13.070Z,52.00
2018-04-23T01:57:40.663Z,52.30
2018-04-23T02:00:08.274Z,52.20
2018-04-23T02:02:35.864Z,52.50
2018-04-23T02:05:03.479Z,52.40
2018-04-23T02:07:31.074Z,52.40
2018-04-23T02:09:58.760Z,52.80
2018-04-23T02:12:26.342Z,52.80
2018-04-23T02:14:54.734Z,52.70
2018-04-23T02:17:22.354Z,52.70
2018-04-23T02:19:49.938Z,52.70
2018-04-23T02:22:18.323Z,53.50
2018-04-23T02:24:46.677Z,53.20
2018-04-23T02:27:15.777Z,53.10
2018-04-23T02:29:44.162Z,53.20
2018-04-23T02:32:11.782Z,53.10
2018-04-23T02:34:39.437Z,53.20
2018-04-23T02:37:07.031Z,53.20
2018-04-23T02:39:34.667Z,53.40
2018-04-23T02:42:02.280Z,53.20
2018-04-23T02:44:30.631Z,53.40
2018-04-23T02:46:58.242Z,53.40
2018-04-23T02:49:25.830Z,53.60
2018-04-23T02:51:53.446Z,54.00
2018-04-23T02:54:21.798Z,53.60
2018-04-23T02:56:49.414Z,53.50
2018-04-23T02:59:16.999Z,53.70
2018-04-23T03:01:44.592Z,53.60
2018-04-23T03:04:12.211Z,53.60
2018-04-23T03:06:40.047Z,54.00
2018-04-23T03:09:07.965Z,54.20
2018-04-23T03:11:35.829Z,53.90
2018-04-23T03:14:03.694Z,54.00
2018-04-23T03:16:31.572Z,54.10
2018-04-23T03:18:59.700Z,54.10
2018-04-23T03:21:27.550Z,54.00
2018-04-23T03:23:55.182Z,54.20
2018-04-23T03:26:23.562Z,54.10
2018-04-23T03:28:51.162Z,54.10
2018-04-23T03:31:18.774Z,54.30
2018-04-23T03:33:47.147Z,54.40
2018-04-23T03:36:14.759Z,54.30
2018-04-23T03:38:42.357Z,54.50
2018-04-23T03:41:09.978Z,54.40
2018-04-23T03:43:37.566Z,54.40
2018-04-23T03:46:05.158Z,54.60
2018-04-23T03:48:32.774Z,54.80
2018-04-23T03:51:00.396Z,54.70
2018-04-23T03:53:28.779Z,54.80
2018-04-23T03:55:57.139Z,55.30
2018-04-23T03:58:24.767Z,55.30
2018-04-23T04:00:52.358Z,55.30
2018-04-23T04:03:19.980Z,55.20
2018-04-23T04:05:47.586Z,55.50
2018-04-23T04:08:15.971Z,55.80
2018-04-23T04:10:44.335Z,55.70
2018-04-23T04:13:23.946Z,55.60
2018-04-23T04:16:03.544Z,55.80
2018-04-23T04:18:43.848Z,56.00
2018-04-23T04:21:11.441Z,55.90
2018-04-23T04:23:39.040Z,55.90
2018-04-23T04:26:06.668Z,56.10
2018-04-23T04:28:34.262Z,56.10
2018-04-23T04:31:02.795Z,56.20
2018-04-23T04:33:30.394Z,56.10
2018-04-23T04:35:58.747Z,56.00
2018-04-23T04:38:27.130Z,56.20
2018-04-23T04:40:55.490Z,56.10
2018-04-23T04:43:23.113Z,56.00
2018-04-23T04:45:50.706Z,56.20
2018-04-23T04:48:18.297Z,56.20
2018-04-23T04:50:46.684Z,56.60
2018-04-23T04:53:15.044Z,56.30
2018-04-23T04:55:43.430Z,56.00
2018-04-23T04:58:11.797Z,55.80
2018-04-23T05:00:39.386Z,56.10
2018-04-23T05:03:07.780Z,56.00
2018-04-23T05:05:35.384Z,55.90
2018-04-23T05:08:03.009Z,56.00
2018-04-23T05:10:30.598Z,56.00
2018-04-23T05:12:58.282Z,56.20
2018-04-23T05:15:25.893Z,56.10
2018-04-23T05:17:53.485Z,56.00
2018-04-23T05:20:21.115Z,55.90
2018-04-23T05:22:48.694Z,56.00
2018-04-23T05:25:16.305Z,55.90
2018-04-23T05:27:44.658Z,56.10
2018-04-23T05:30:12.290Z,56.10
2018-04-23T05:32:39.899Z,56.10
2018-04-23T05:35:08.299Z,56.80
2018-04-23T05:37:35.904Z,56.10
2018-04-23T05:40:03.542Z,56.30
2018-04-23T05:42:31.193Z,56.60
2018-04-23T05:44:58.837Z,56.60
2018-04-23T05:47:27.198Z,56.60
2018-04-23T05:49:55.599Z,56.40
2018-04-23T05:52:23.200Z,56.70
2018-04-23T05:54:50.829Z,56.90
2018-04-23T05:57:18.426Z,57.10
2018-04-23T05:59:46.055Z,57.20
2018-04-23T06:02:13.654Z,57.40
2018-04-23T06:04:41.278Z,57.20
2018-04-23T06:07:08.988Z,57.40
2018-04-23T06:09:36.607Z,57.40
2018-04-23T06:12:04.206Z,57.40
2018-04-23T06:14:31.822Z,57.30
2018-04-23T06:16:59.510Z,57.40
2018-04-23T06:19:27.107Z,57.20
2018-04-23T06:21:54.768Z,57.20
2018-04-23T06:24:22.350Z,57.00
2018-04-23T06:26:50.738Z,57.10
2018-04-23T06:29:18.564Z,57.00
2018-04-23T06:31:46.191Z,56.90
2018-04-23T06:34:13.794Z,57.00
2018-04-23T06:36:42.200Z,56.90
2018-04-23T06:39:10.566Z,56.80
2018-04-23T06:41:38.957Z,56.90
2018-04-23T06:44:07.318Z,56.70
2018-04-23T06:46:36.333Z,56.80
2018-04-23T06:49:03.933Z,56.80
2018-04-23T06:51:31.559Z,56.80
2018-04-23T06:53:59.161Z,56.70
2018-04-23T06:56:26.854Z,56.70
2018-04-23T06:58:54.446Z,56.70
2018-04-23T07:01:22.062Z,56.70
2018-04-23T07:03:49.670Z,56.70
2018-04-23T07:06:17.293Z,56.70
2018-04-23T07:08:44.882Z,56.70
2018-04-23T07:11:12.478Z,56.70
2018-04-23T07:13:40.098Z,56.70
2018-04-23T07:16:08.454Z,56.80
2018-04-23T07:18:36.890Z,56.70
2018-04-23T07:21:04.492Z,56.80
2018-04-23T07:23:32.324Z,56.60
2018-04-23T07:25:59.939Z,56.40
2018-04-23T07:28:27.568Z,56.40
2018-04-23T07:30:55.155Z,56.20
2018-04-23T07:33:23.510Z,56.10
2018-04-23T07:35:51.904Z,56.00
2018-04-23T07:38:19.507Z,56.00
2018-04-23T07:40:47.207Z,56.00
2018-04-23T07:43:15.067Z,55.90
2018-04-23T07:45:42.687Z,55.80
2018-04-23T07:48:10.496Z,55.80
2018-04-23T07:50:38.264Z,55.70
2018-04-23T07:53:06.029Z,55.70
2018-04-23T07:55:33.707Z,55.70
2018-04-23T07:58:01.400Z,55.70
2018-04-23T08:00:29.114Z,55.70
2018-04-23T08:02:56.874Z,55.60
2018-04-23T08:05:24.742Z,55.60
2018-04-23T08:07:52.494Z,55.60
2018-04-23T08:10:20.194Z,55.60
2018-04-23T08:12:47.920Z,56.10
2018-04-23T08:15:15.699Z,55.50
2018-04-23T08:17:43.436Z,55.50
2018-04-23T08:20:11.233Z,55.60
2018-04-23T08:22:39.010Z,55.60
2018-04-23T08:25:06.632Z,55.50
2018-04-23T08:27:34.505Z,55.60
2018-04-23T08:30:03.870Z,55.40
2018-04-23T08:32:33.458Z,55.30
2018-04-23T08:35:02.895Z,55.20
2018-04-23T08:37:33.166Z,55.20
2018-04-23T08:40:03.521Z,55.10
2018-04-23T08:42:34.025Z,55.00
2018-04-23T08:45:04.125Z,54.90
2018-04-23T08:47:34.449Z,55.00
2018-04-23T08:50:04.675Z,55.00
2018-04-23T08:52:34.882Z,54.90
2018-04-23T08:55:03.616Z,54.80
2018-04-23T08:57:33.506Z,54.80
2018-04-23T09:00:02.219Z,54.20
2018-04-23T09:02:33.029Z,53.60
2018-04-23T09:05:00.831Z,53.50
2018-04-23T09:07:29.243Z,52.30
2018-04-23T09:09:57.030Z,52.30
2018-04-23T09:12:24.805Z,52.20
2018-04-23T09:14:52.449Z,52.20
2018-04-23T09:17:21.011Z,52.10
2018-04-23T09:19:51.140Z,52.00
2018-04-23T09:22:21.294Z,52.00
2018-04-23T09:24:51.616Z,51.60
2018-04-23T09:27:19.383Z,51.50
2018-04-23T09:29:47.006Z,51.30
2018-04-23T09:32:14.597Z,51.30
2018-04-23T09:34:43.771Z,51.40
2018-04-23T09:37:11.447Z,51.30
2018-04-23T09:39:39.075Z,50.90
2018-04-23T09:42:06.756Z,50.60
2018-04-23T09:44:34.393Z,50.10
2018-04-23T09:47:02.004Z,50.30
2018-04-23T09:49:29.716Z,50.40
2018-04-23T09:51:57.349Z,50.70
2018-04-23T09:54:25.712Z,50.40
2018-04-23T09:56:53.467Z,50.40
2018-04-23T09:59:21.100Z,50.20
2018-04-23T10:01:50.678Z,49.80
2018-04-23T10:04:21.103Z,49.60
2018-04-23T10:06:48.706Z,49.30
2018-04-23T10:09:16.302Z,49.30
2018-04-23T10:11:43.935Z,48.90
2018-04-23T10:14:11.551Z,49.00
2018-04-23T10:16:39.249Z,49.10
2018-04-23T10:19:06.857Z,48.80
2018-04-23T10:21:35.217Z,48.70
2018-04-23T10:24:02.961Z,48.60
2018-04-23T10:26:30.567Z,48.40
2018-04-23T10:28:58.957Z,47.90
2018-04-23T10:31:26.598Z,47.90
2018-04-23T10:33:54.182Z,47.50
2018-04-23T10:36:21.830Z,47.80
2018-04-23T10:38:50.271Z,46.70
2018-04-23T10:41:18.122Z,46.70
2018-04-23T10:43:45.733Z,46.40
2018-04-23T10:46:14.094Z,46.60
2018-04-23T10:48:41.722Z,46.40
2018-04-23T10:51:09.348Z,46.60
2018-04-23T10:53:36.974Z,46.50
2018-04-23T10:56:04.569Z,46.60
2018-04-23T10:58:32.163Z,46.50
2018-04-23T11:00:59.799Z,46.00
2018-04-23T11:03:27.385Z,46.10
2018-04-23T11:05:55.021Z,45.50
2018-04-23T11:08:22.631Z,45.40
2018-04-23T11:10:50.227Z,44.60
2018-04-23T11:13:18.612Z,44.70
2018-04-23T11:15:46.260Z,44.70
2018-04-23T11:18:13.875Z,45.10
2018-04-23T11:20:42.326Z,45.20
2018-04-23T11:23:09.922Z,45.00
2018-04-23T11:25:37.546Z,44.20
2018-04-23T11:28:05.146Z,43.80
2018-04-23T11:30:32.762Z,43.40
2018-04-23T11:33:00.349Z,43.00
2018-04-23T11:35:27.956Z,42.60
2018-04-23T11:37:55.726Z,42.50
2018-04-23T11:40:24.086Z,43.00
2018-04-23T11:42:51.714Z,42.90
2018-04-23T11:45:19.315Z,42.60
2018-04-23T11:47:46.907Z,43.60
2018-04-23T11:50:14.522Z,43.90
2018-04-23T11:52:42.122Z,43.70
2018-04-23T11:55:10.506Z,43.80
2018-04-23T11:57:38.096Z,43.70
2018-04-23T12:00:05.700Z,42.10
2018-04-23T12:02:33.390Z,41.50
2018-04-23T12:05:00.956Z,41.50
2018-04-23T12:07:28.579Z,41.60
2018-04-23T12:09:56.173Z,42.00
2018-04-23T12:12:23.774Z,41.80
2018-04-23T12:14:51.392Z,42.60
2018-04-23T12:17:18.986Z,42.80
2018-04-23T12:19:46.613Z,42.10
2018-04-23T12:22:14.206Z,42.00
2018-04-23T12:24:41.794Z,42.00
2018-04-23T12:27:09.421Z,41.40
2018-04-23T12:29:37.010Z,41.70
2018-04-23T12:32:04.634Z,41.90
2018-04-23T12:34:32.249Z,41.50
2018-04-23T12:36:59.854Z,41.40
2018-04-23T12:39:27.502Z,41.40
2018-04-23T12:41:55.092Z,41.80
2018-04-23T12:44:22.713Z,42.10
2018-04-23T12:46:51.063Z,42.20
2018-04-23T12:49:18.688Z,42.20
2018-04-23T12:51:46.290Z,41.90
2018-04-23T12:54:13.939Z,41.60
2018-04-23T12:56:41.522Z,41.40
2018-04-23T12:59:09.144Z,41.50
2018-04-23T13:01:36.730Z,41.10
2018-04-23T13:04:04.371Z,41.00
2018-04-23T13:06:31.960Z,41.10
2018-04-23T13:08:59.554Z,39.60
2018-04-23T13:11:27.174Z,39.70
2018-04-23T13:13:55.548Z,39.70
2018-04-23T13:16:23.173Z,39.60
2018-04-23T13:18:50.763Z,39.40
2018-04-23T13:21:18.345Z,39.20
2018-04-23T13:23:46.762Z,38.40
2018-04-23T13:26:14.351Z,38.30
2018-04-23T13:28:41.976Z,39.00
2018-04-23T13:31:09.570Z,39.20
2018-04-23T13:33:37.158Z,38.60
2018-04-23T13:36:04.777Z,38.60
2018-04-23T13:38:32.371Z,38.80
2018-04-23T13:41:00.761Z,39.00
2018-04-23T13:43:28.785Z,39.00
2018-04-23T13:45:56.458Z,38.60
2018-04-23T13:48:24.077Z,39.10
2018-04-23T13:50:52.440Z,37.90
2018-04-23T13:53:20.165Z,37.80
2018-04-23T13:55:47.761Z,38.10
2018-04-23T13:58:16.862Z,38.00
2018-04-23T14:00:45.298Z,38.10
2018-04-23T14:03:12.890Z,38.10
2018-04-23T14:05:40.635Z,37.40
2018-04-23T14:08:08.226Z,37.50
2018-04-23T14:10:36.586Z,37.80
2018-04-23T14:13:04.212Z,37.70
2018-04-23T14:15:31.883Z,38.20
2018-04-23T14:17:59.522Z,38.30
2018-04-23T14:20:27.208Z,38.70
2018-04-23T14:22:54.789Z,37.90
2018-04-23T14:25:22.402Z,37.80
2018-04-23T14:27:49.986Z,37.60
2018-04-23T14:30:17.611Z,37.80
2018-04-23T14:32:45.966Z,36.90
2018-04-23T14:35:13.595Z,36.90
2018-04-23T14:37:41.250Z,36.60
2018-04-23T14:40:08.839Z,36.60
2018-04-23T14:42:37.966Z,36.50
2018-04-23T14:45:06.328Z,36.80
2018-04-23T14:47:34.691Z,36.70
2018-04-23T14:50:03.100Z,36.60
2018-04-23T14:52:31.458Z,36.50
2018-04-23T14:54:59.902Z,36.30
2018-04-23T14:57:27.496Z,36.30
2018-04-23T14:59:55.093Z,36.80
2018-04-23T15:02:22.707Z,36.60
2018-04-23T15:04:50.294Z,36.60
2018-04-23T15:07:18.723Z,36.40
2018-04-23T15:09:46.319Z,36.30
2018-04-23T15:12:13.956Z,36.30
2018-04-23T15:14:41.575Z,36.40
2018-04-23T15:17:09.163Z,36.20
2018-04-23T15:19:36.782Z,36.80
2018-04-23T15:22:05.137Z,36.80
2018-04-23T15:24:32.725Z,36.80
2018-04-23T15:27:01.105Z,37.10
2018-04-23T15:29:28.702Z,37.00
2018-04-23T15:31:56.340Z,37.10
2018-04-23T15:34:23.923Z,37.30
2018-04-23T15:36:51.514Z,37.90
2018-04-23T15:39:19.899Z,38.00
2018-04-23T15:41:47.493Z,38.00
2018-04-23T15:44:15.110Z,38.00
2018-04-23T15:46:43.527Z,37.80
2018-04-23T15:49:11.929Z,38.00
2018-04-23T15:51:39.539Z,38.00
2018-04-23T15:54:07.174Z,37.60
2018-04-23T15:56:34.842Z,37.60
2018-04-23T15:59:02.459Z,37.80
2018-04-23T16:01:30.090Z,37.20
2018-04-23T16:03:57.678Z,37.60
2018-04-23T16:06:25.310Z,37.90
2018-04-23T16:08:52.904Z,38.40
2018-04-23T16:11:20.527Z,38.90
2018-04-23T16:13:48.154Z,38.70
2018-04-23T16:16:15.826Z,38.90
2018-04-23T16:18:43.418Z,39.00
2018-04-23T16:21:11.038Z,38.80
2018-04-23T16:23:38.642Z,38.90
2018-04-23T16:26:06.263Z,39.20
2018-04-23T16:28:33.854Z,39.30
2018-04-23T16:31:01.494Z,39.20
2018-04-23T16:33:29.143Z,39.40
2018-04-23T16:35:56.738Z,39.40
2018-04-23T16:38:24.380Z,39.60
2018-04-23T16:40:51.976Z,40.10
2018-04-23T16:43:20.417Z,40.30
2018-04-23T16:45:47.998Z,39.70
2018-04-23T16:48:15.734Z,40.00
2018-04-23T16:50:43.329Z,40.20
2018-04-23T16:53:10.955Z,40.40
2018-04-23T16:55:39.861Z,40.30
2018-04-23T16:58:07.474Z,40.50
2018-04-23T17:00:35.098Z,40.40
2018-04-23T17:03:02.728Z,40.50
2018-04-23T17:05:30.330Z,40.70
2018-04-23T17:07:58.784Z,41.00
2018-04-23T17:10:26.355Z,40.90
2018-04-23T17:12:53.945Z,41.20
2018-04-23T17:15:22.323Z,41.20
2018-04-23T17:17:50.691Z,41.40
2018-04-23T17:20:19.110Z,41.50
2018-04-23T17:22:46.710Z,41.50
2018-04-23T17:25:15.885Z,41.90
2018-04-23T17:27:43.470Z,41.80
2018-04-23T17:30:12.602Z,42.60
2018-04-23T17:32:40.959Z,42.10
2018-04-23T17:35:08.786Z,42.00
2018-04-23T17:37:36.375Z,42.80
2018-04-23T17:40:03.997Z,42.30
2018-04-23T17:42:31.590Z,42.30
2018-04-23T17:44:59.229Z,42.40
2018-04-23T17:47:26.846Z,42.80
2018-04-23T17:49:55.375Z,43.40
2018-04-23T17:52:22.986Z,43.30
2018-04-23T17:54:51.347Z,43.80
2018-04-23T17:57:18.986Z,44.40
2018-04-23T17:59:46.579Z,44.10
2018-04-23T18:02:14.998Z,44.50
2018-04-23T18:04:42.626Z,44.40
2018-04-23T18:07:10.986Z,44.80
2018-04-23T18:09:38.603Z,44.70
2018-04-23T18:12:06.218Z,44.90
2018-04-23T18:14:34.614Z,45.10
2018-04-23T18:17:02.982Z,45.10
2018-04-23T18:19:32.373Z,45.00
2018-04-23T18:22:00.874Z,45.40
2018-04-23T18:24:29.299Z,45.60
2018-04-23T18:26:56.910Z,45.50
2018-04-23T18:29:25.279Z,45.60
2018-04-23T18:31:53.666Z,45.60
2018-04-23T18:34:22.034Z,45.70
2018-04-23T18:36:50.598Z,45.90
2018-04-23T18:39:18.461Z,45.60
2018-04-23T18:41:46.056Z,45.90
2018-04-23T18:44:14.700Z,46.00
2018-04-23T18:46:42.283Z,45.90
2018-04-23T18:49:10.185Z,45.90
2018-04-23T18:51:38.916Z,46.20
2018-04-23T18:54:08.687Z,46.20
2018-04-23T18:56:36.412Z,46.30
2018-04-23T18:59:04.803Z,46.40
2018-04-23T19:01:33.167Z,46.70
2018-04-23T19:04:00.786Z,46.60
2018-04-23T19:06:28.606Z,46.90
2018-04-23T19:08:56.236Z,46.80
2018-04-23T19:11:23.828Z,46.80
2018-04-23T19:13:52.229Z,46.80
2018-04-23T19:16:20.619Z,46.90
2018-04-23T19:18:48.230Z,46.80
2018-04-23T19:21:15.852Z,47.20
2018-04-23T19:23:43.452Z,47.20
2018-04-23T19:26:11.110Z,47.40
2018-04-23T19:28:38.700Z,47.40
2018-04-23T19:31:07.096Z,47.50
2018-04-23T19:33:34.687Z,47.50
2018-04-23T19:36:02.298Z,47.20
2018-04-23T19:38:30.650Z,47.60
2018-04-23T19:40:58.279Z,47.60
2018-04-23T19:43:25.870Z,47.40
2018-04-23T19:45:53.454Z,47.70
2018-04-23T19:48:21.848Z,47.90
2018-04-23T19:50:49.654Z,47.80
2018-04-23T19:53:17.295Z,47.80
2018-04-23T19:55:44.886Z,48.10
2018-04-23T19:58:12.499Z,48.10
2018-04-23T20:00:40.847Z,48.20
2018-04-23T20:03:08.477Z,48.20
2018-04-23T20:05:36.095Z,48.20
2018-04-23T20:08:04.478Z,48.50
2018-04-23T20:10:32.965Z,48.50
2018-04-23T20:13:00.590Z,48.50
2018-04-23T20:15:28.189Z,48.50
2018-04-23T20:17:55.782Z,48.80
2018-04-23T20:20:24.163Z,48.60
2018-04-23T20:22:51.754Z,48.50
2018-04-23T20:25:19.380Z,48.40
2018-04-23T20:27:46.974Z,48.40
2018-04-23T20:30:14.565Z,48.40
2018-04-23T20:32:42.183Z,48.40
2018-04-23T20:35:09.809Z,48.50
2018-04-23T20:37:37.440Z,48.30
2018-04-23T20:40:05.075Z,48.40
2018-04-23T20:42:32.657Z,48.50
2018-04-23T20:45:01.039Z,48.80
2018-04-23T20:47:29.394Z,48.60
2018-04-23T20:49:57.027Z,48.50
2018-04-23T20:52:24.660Z,48.80
2018-04-23T20:54:52.404Z,48.80
2018-04-23T20:57:20.957Z,48.70
2018-04-23T20:59:49.328Z,48.60
2018-04-23T21:02:16.953Z,48.60
2018-04-23T21:04:44.631Z,48.70
2018-04-23T21:07:12.214Z,48.80
2018-04-23T21:09:39.838Z,48.80
2018-04-23T21:12:07.438Z,48.80
2018-04-23T21:14:35.055Z,48.70
2018-04-23T21:17:02.648Z,48.80
2018-04-23T21:19:30.234Z,48.80
2018-04-23T21:21:57.859Z,48.90
2018-04-23T21:24:25.480Z,48.80
2018-04-23T21:26:53.132Z,48.80
2018-04-23T21:29:21.482Z,49.00
2018-04-23T21:31:49.139Z,49.00
2018-04-23T21:34:16.759Z,48.90
2018-04-23T21:36:45.686Z,48.90
2018-04-23T21:39:13.348Z,48.90
2018-04-23T21:41:40.938Z,49.00
2018-04-23T21:44:08.582Z,49.00
2018-04-23T21:46:36.171Z,48.80
2018-04-23T21:49:04.526Z,48.80
2018-04-23T21:51:32.163Z,48.80
2018-04-23T21:53:59.809Z,48.80
2018-04-23T21:56:27.438Z,48.70
2018-04-23T21:58:55.800Z,48.70
2018-04-23T22:01:24.337Z,49.00
2018-04-23T22:03:51.971Z,48.60
2018-04-23T22:06:19.567Z,48.70
2018-04-23T22:08:47.186Z,48.60
2018-04-23T22:11:15.539Z,48.50
2018-04-23T22:13:43.130Z,48.50
2018-04-23T22:16:10.824Z,48.50
2018-04-23T22:18:38.410Z,48.60
2018-04-23T22:21:06.358Z,48.50
2018-04-23T22:23:33.956Z,48.50
2018-04-23T22:26:01.546Z,48.60
2018-04-23T22:28:29.185Z,48.40
2018-04-23T22:30:57.578Z,48.90
2018-04-23T22:33:25.199Z,48.80
2018-04-23T22:35:52.787Z,48.90
2018-04-23T22:38:21.206Z,48.80
2018-04-23T22:40:48.821Z,48.80
2018-04-23T22:43:17.182Z,48.70
2018-04-23T22:45:44.794Z,49.00
2018-04-23T22:48:12.381Z,49.00
2018-04-23T22:50:40.015Z,49.00
2018-04-23T22:53:07.606Z,49.00
2018-04-23T22:55:35.579Z,49.00
2018-04-23T22:58:03.222Z,49.10
2018-04-23T23:00:30.936Z,49.00
2018-04-23T23:02:58.550Z,49.10
2018-04-23T23:05:26.146Z,49.10
2018-04-23T23:07:53.768Z,49.20
2018-04-23T23:10:21.384Z,49.10
2018-04-23T23:12:49.789Z,49.10
2018-04-23T23:15:17.410Z,49.00
2018-04-23T23:17:45.221Z,49.30
2018-04-23T23:20:12.825Z,49.40
2018-04-23T23:22:40.442Z,49.50
2018-04-23T23:25:08.030Z,49.50
2018-04-23T23:27:37.102Z,49.60
2018-04-23T23:30:04.699Z,49.60
2018-04-23T23:32:32.299Z,49.50
2018-04-23T23:35:00.682Z,49.40
2018-04-23T23:37:28.379Z,49.30
2018-04-23T23:39:56.006Z,49.60
2018-04-23T23:42:23.595Z,49.60
2018-04-23T23:44:51.181Z,49.50
2018-04-23T23:47:18.800Z,49.50
2018-04-23T23:49:46.400Z,49.60
2018-04-23T23:52:14.024Z,49.60
2018-04-23T23:54:41.628Z,49.70
2018-04-23T23:57:09.254Z,49.90
2018-04-23T23:59:36.892Z,49.80
